createdAt,value
2023-01-17T00:02:38.230Z,97985.90
2023-01-17T00:07:59.253Z,97977.52
2023-01-17T00:13:03.631Z,97966.06
2023-01-17T00:18:05.619Z,97961.45
2023-01-17T00:23:32.457Z,97960.24
2023-01-17T00:28:37.780Z,97950.99
2023-01-17T00:33:39.624Z,97945.70
2023-01-17T00:38:41.439Z,97941.06
2023-01-17T00:44:02.159Z,97928.20
2023-01-17T00:49:23.867Z,97919.42
2023-01-17T00:54:44.551Z,97907.40
2023-01-17T01:00:05.577Z,97896.03
2023-01-17T01:05:26.857Z,97884.33
2023-01-17T01:10:47.895Z,97872.65
2023-01-17T01:16:08.744Z,97866.61
2023-01-17T01:21:29.325Z,97857.34
2023-01-17T01:26:49.942Z,97845.20
2023-01-17T01:32:10.496Z,97829.42
2023-01-17T01:37:12.433Z,97820.69
2023-01-17T01:42:15.845Z,97806.83
2023-01-17T01:47:28.105Z,97796.37
2023-01-17T01:52:33.196Z,97789.35
2023-01-17T01:57:40.986Z,97773.59
2023-01-17T02:02:44.963Z,97762.80
2023-01-17T02:07:52.188Z,97753.70
2023-01-17T02:12:55.684Z,97745.44
2023-01-17T02:18:30.895Z,97753.81
2023-01-17T02:24:08.624Z,97758.41
2023-01-17T02:29:25.792Z,97756.67
2023-01-17T02:34:31.108Z,97754.92
2023-01-17T02:39:39.718Z,97750.63
2023-01-17T02:44:43.192Z,97742.56
2023-01-17T02:49:45.222Z,97741.38
2023-01-17T02:54:50.121Z,97746.85
2023-01-17T03:00:06.071Z,97737.27
2023-01-17T03:05:22.820Z,97725.62
2023-01-17T03:10:25.197Z,97713.95
2023-01-17T03:15:27.206Z,97703.64
2023-01-17T03:20:29.369Z,97692.50
2023-01-17T03:25:31.289Z,97679.45
2023-01-17T03:30:33.342Z,97678.75
2023-01-17T03:35:35.721Z,97672.72
2023-01-17T03:40:38.746Z,97677.67
2023-01-17T03:45:40.815Z,97661.90
2023-01-17T03:50:43.380Z,97657.93
2023-01-17T03:55:46.520Z,97658.58
2023-01-17T04:00:48.532Z,97657.01
2023-01-17T04:05:50.520Z,97655.10
2023-01-17T04:10:52.689Z,97645.98
2023-01-17T04:15:56.163Z,97619.07
2023-01-17T04:20:58.124Z,97615.26
2023-01-17T04:26:00.417Z,97624.48
2023-01-17T04:31:03.582Z,97631.30
2023-01-17T04:36:06.432Z,97628.90
2023-01-17T04:41:12.040Z,97640.19
2023-01-17T04:46:13.952Z,97635.91
2023-01-17T04:51:15.991Z,97627.18
2023-01-17T04:56:17.959Z,97627.70
2023-01-17T05:01:19.959Z,97624.30
2023-01-17T05:06:22.080Z,97615.75
2023-01-17T05:11:24.093Z,97610.16
2023-01-17T05:16:26.827Z,97606.22
2023-01-17T05:21:30.339Z,97604.00
2023-01-17T05:26:32.614Z,97606.73
2023-01-17T05:31:34.837Z,97604.20
2023-01-17T05:36:36.789Z,97591.38
2023-01-17T05:41:38.694Z,97597.02
2023-01-17T05:46:41.955Z,97598.77
2023-01-17T05:51:43.900Z,97605.79
2023-01-17T05:56:45.822Z,97592.98
2023-01-17T06:01:47.737Z,97604.31
2023-01-17T06:06:49.600Z,97610.52
2023-01-17T06:11:51.726Z,97613.13
2023-01-17T06:16:53.919Z,97616.95
2023-01-17T06:21:56.011Z,97614.60
2023-01-17T06:26:57.929Z,97620.45
2023-01-17T06:32:01.749Z,97615.88
2023-01-17T06:37:04.099Z,97610.27
2023-01-17T06:42:05.989Z,97617.33
2023-01-17T06:47:09.657Z,97628.16
2023-01-17T06:52:11.735Z,97623.08
2023-01-17T06:57:13.702Z,97626.55
2023-01-17T07:02:15.775Z,97636.55
2023-01-17T07:07:18.321Z,97642.77
2023-01-17T07:12:20.220Z,97634.93
2023-01-17T07:17:22.202Z,97627.94
2023-01-17T07:22:24.118Z,97630.04
2023-01-17T07:27:30.802Z,97627.33
2023-01-17T07:32:32.728Z,97630.97
2023-01-17T07:37:34.937Z,97640.43
2023-01-17T07:42:36.872Z,97637.03
2023-01-17T07:47:39.863Z,97640.14
2023-01-17T07:52:41.909Z,97630.22
2023-01-17T07:57:49.359Z,97625.80
2023-01-17T08:02:56.779Z,97629.39
2023-01-17T08:07:58.796Z,97625.30
2023-01-17T08:13:01.040Z,97622.40
2023-01-17T08:18:03.242Z,97619.51
2023-01-17T08:23:08.714Z,97625.52
2023-01-17T08:28:11.544Z,97630.70
2023-01-17T08:33:13.723Z,97639.46
2023-01-17T08:38:15.640Z,97649.25
2023-01-17T08:43:17.838Z,97645.67
2023-01-17T08:48:19.794Z,97640.52
2023-01-17T08:53:23.580Z,97642.94
2023-01-17T08:58:30.321Z,97641.92
2023-01-17T09:03:34.214Z,97633.89
2023-01-17T09:08:37.311Z,97643.19
2023-01-17T09:13:40.417Z,97657.13
2023-01-17T09:18:42.808Z,97668.64
2023-01-17T09:23:44.874Z,97679.64
2023-01-17T09:28:47.398Z,97676.02
2023-01-17T09:33:51.065Z,97667.27
2023-01-17T09:39:00.633Z,97664.54
2023-01-17T09:44:26.704Z,97666.27
2023-01-17T09:50:16.814Z,97660.77
2023-01-17T09:55:22.438Z,97646.33
2023-01-17T10:00:33.361Z,97640.48
2023-01-17T10:06:03.558Z,97636.88
2023-01-17T10:11:09.110Z,97636.86
2023-01-17T10:16:43.499Z,97633.77
2023-01-17T10:22:22.964Z,97633.92
2023-01-17T10:27:30.620Z,97633.92
2023-01-17T10:32:42.455Z,97643.20
2023-01-17T10:37:46.102Z,97637.86
2023-01-17T10:43:04.789Z,97640.11
2023-01-17T10:48:25.638Z,97647.01
2023-01-17T10:53:59.432Z,97650.27
2023-01-17T10:59:15.197Z,97649.93
2023-01-17T11:04:36.622Z,97654.21
2023-01-17T11:09:44.436Z,97658.17
2023-01-17T11:15:08.828Z,97661.27
2023-01-17T11:20:28.106Z,97651.98
2023-01-17T11:25:34.829Z,97649.24
2023-01-17T11:30:36.800Z,97641.83
2023-01-17T11:35:45.186Z,97643.71
2023-01-17T11:40:48.969Z,97635.98
2023-01-17T11:46:14.400Z,97641.14
2023-01-17T11:51:41.403Z,97642.83
2023-01-17T11:56:48.925Z,97649.86
2023-01-17T12:02:18.766Z,97652.79
2023-01-17T12:07:35.466Z,97649.86
2023-01-17T12:13:25.453Z,97647.25
2023-01-17T12:19:08.234Z,97650.18
2023-01-17T12:24:38.223Z,97653.11
2023-01-17T12:29:58.568Z,97653.97
2023-01-17T12:35:27.744Z,97647.45
2023-01-17T12:40:54.921Z,97656.05
2023-01-17T12:45:59.939Z,97665.89
2023-01-17T12:51:28.969Z,97668.31
2023-01-17T12:56:43.441Z,97667.98
2023-01-17T13:01:58.581Z,97676.76
2023-01-17T13:07:45.507Z,97688.29
2023-01-17T13:12:53.196Z,97699.80
2023-01-17T13:18:13.836Z,97705.33
2023-01-17T13:23:47.760Z,97708.59
2023-01-17T13:29:20.740Z,97718.36
2023-01-17T13:34:41.027Z,97730.23
2023-01-17T13:40:04.997Z,97736.41
2023-01-17T13:45:19.726Z,97741.23
2023-01-17T13:50:40.651Z,97742.10
2023-01-17T13:55:50.744Z,97753.78
2023-01-17T14:00:55.140Z,97759.27
2023-01-17T14:05:57.473Z,97763.92
2023-01-17T14:11:09.918Z,97768.21
2023-01-17T14:16:21.207Z,97766.67
2023-01-17T14:21:35.328Z,97768.21
2023-01-17T14:26:46.966Z,97772.48
2023-01-17T14:31:49.982Z,97777.64
2023-01-17T14:37:04.481Z,97783.13
2023-01-17T14:42:12.670Z,97787.25
2023-01-17T14:47:16.453Z,97796.85
2023-01-17T14:52:18.950Z,97805.63
2023-01-17T14:57:29.988Z,97808.00
2023-01-17T15:02:32.976Z,97815.90
2023-01-17T15:07:38.919Z,97825.86
2023-01-17T15:12:46.132Z,97829.48
2023-01-17T15:17:48.137Z,97838.73
2023-01-17T15:22:50.836Z,97850.43
2023-01-17T15:27:53.093Z,97858.00
2023-01-17T15:32:55.662Z,97872.44
2023-01-17T15:37:58.422Z,97878.46
2023-01-17T15:43:01.392Z,97884.64
2023-01-17T15:48:25.667Z,97887.73
2023-01-17T15:53:35.028Z,97888.77
2023-01-17T15:58:37.057Z,97898.36
2023-01-17T16:03:42.269Z,97896.28
2023-01-17T16:08:52.006Z,97894.52
2023-01-17T16:13:54.174Z,97892.95
2023-01-17T16:19:01.428Z,97895.16
2023-01-17T16:24:05.488Z,97905.27
2023-01-17T16:29:07.796Z,97904.54
2023-01-17T16:34:12.954Z,97913.58
2023-01-17T16:39:15.365Z,97927.05
2023-01-17T16:44:17.331Z,97924.84
2023-01-17T16:49:19.287Z,97932.77
2023-01-17T16:54:21.515Z,97932.88
2023-01-17T16:59:23.494Z,97935.63
2023-01-17T17:04:25.529Z,97939.27
2023-01-17T17:09:27.661Z,97954.09
2023-01-17T17:14:30.083Z,97961.57
2023-01-17T17:19:33.266Z,97967.67
2023-01-17T17:24:35.779Z,97965.36
2023-01-17T17:29:37.728Z,97963.89
2023-01-17T17:34:39.665Z,97969.58
2023-01-17T17:45:06.103Z,97979.63
2023-01-17T17:50:12.810Z,97983.75
2023-01-17T17:55:18.625Z,97983.40
2023-01-17T18:00:22.703Z,97983.73
2023-01-17T18:05:24.597Z,97979.57
2023-01-17T18:10:27.744Z,97975.90
2023-01-17T18:15:29.708Z,97969.23
2023-01-17T18:20:31.614Z,97973.52
2023-01-17T18:25:36.380Z,97974.35
2023-01-17T18:30:38.978Z,97981.15
2023-01-17T18:35:40.908Z,97984.86
2023-01-17T18:40:43.271Z,97996.96
2023-01-17T18:45:52.650Z,98008.16
2023-01-17T18:51:06.825Z,98018.73
2023-01-17T18:56:13.749Z,98026.76
2023-01-17T19:01:15.739Z,98038.56
2023-01-17T19:06:22.730Z,98043.33
2023-01-17T19:11:25.852Z,98041.14
2023-01-17T19:16:34.560Z,98042.63
2023-01-17T19:21:36.664Z,98047.84
2023-01-17T19:26:38.833Z,98062.95
2023-01-17T19:31:43.842Z,98068.20
2023-01-17T19:36:46.837Z,98064.63
2023-01-17T19:41:50.648Z,98074.56
2023-01-17T19:46:52.621Z,98082.95
2023-01-17T19:51:54.557Z,98084.02
2023-01-17T19:56:56.459Z,98090.36
2023-01-17T20:02:00.946Z,98086.20
2023-01-17T20:07:03.662Z,98092.98
2023-01-17T20:12:06.203Z,98104.60
2023-01-17T20:17:08.671Z,98117.28
2023-01-17T20:22:10.607Z,98133.88
2023-01-17T20:27:12.752Z,98141.79
2023-01-17T20:32:14.856Z,98148.64
2023-01-17T20:37:17.201Z,98158.94
2023-01-17T20:42:19.644Z,98176.91
2023-01-17T20:47:21.662Z,98191.92
2023-01-17T20:52:23.594Z,98208.84
2023-01-17T20:57:25.583Z,98210.73
2023-01-17T21:02:28.129Z,98214.38
2023-01-17T21:07:30.349Z,98226.23
2023-01-17T21:12:33.222Z,98233.27
2023-01-17T21:17:40.226Z,98240.71
2023-01-17T21:22:42.775Z,98237.26
2023-01-17T21:27:45.315Z,98235.65
2023-01-17T21:32:47.404Z,98235.79
2023-01-17T21:37:50.230Z,98253.54
2023-01-17T21:42:52.389Z,98260.11
2023-01-17T21:47:54.554Z,98258.13
2023-01-17T21:52:56.623Z,98253.99
2023-01-17T21:58:17.645Z,98248.65
2023-01-17T22:03:19.713Z,98246.80
2023-01-17T22:08:22.455Z,98256.55
2023-01-17T22:13:25.738Z,98266.43
2023-01-17T22:18:32.454Z,98269.99
2023-01-17T22:23:35.834Z,98274.64
2023-01-17T22:28:39.324Z,98276.64
2023-01-17T22:33:45.895Z,98281.38
2023-01-17T22:38:48.720Z,98285.19
2023-01-17T22:43:58.375Z,98284.98
2023-01-17T22:49:00.463Z,98278.59
2023-01-17T22:54:02.915Z,98285.17
2023-01-17T22:59:10.880Z,98283.14
2023-01-17T23:04:15.631Z,98290.68
2023-01-17T23:09:17.571Z,98301.15
2023-01-17T23:14:52.343Z,98297.09
2023-01-17T23:19:54.881Z,98299.05
2023-01-17T23:25:00.412Z,98302.13
2023-01-17T23:30:05.887Z,98298.31
2023-01-17T23:35:08.322Z,98296.39
2023-01-17T23:40:11.464Z,98301.50
2023-01-17T23:45:13.787Z,98302.02
2023-01-17T23:50:16.622Z,98298.41
2023-01-17T23:55:19.058Z,98300.06
